createdAt,value
2022-12-15T00:02:35.882Z,55.97
2022-12-15T00:05:22.549Z,55.93
2022-12-15T00:08:08.554Z,55.54
2022-12-15T00:10:54.892Z,55.87
2022-12-15T00:13:41.090Z,55.81
2022-12-15T00:16:27.883Z,55.79
2022-12-15T00:19:13.511Z,55.93
2022-12-15T00:21:59.565Z,56.20
2022-12-15T00:24:44.907Z,55.98
2022-12-15T00:27:35.693Z,56.15
2022-12-15T00:30:23.284Z,56.10
2022-12-15T00:33:08.954Z,55.89
2022-12-15T00:35:55.018Z,55.81
2022-12-15T00:38:42.286Z,55.72
2022-12-15T00:41:13.310Z,55.39
2022-12-15T00:43:40.478Z,55.40
2022-12-15T00:46:26.809Z,55.15
2022-12-15T00:48:54.232Z,55.42
2022-12-15T00:51:21.813Z,55.66
2022-12-15T00:54:09.832Z,55.53
2022-12-15T00:56:58.738Z,55.48
2022-12-15T00:59:44.470Z,55.17
2022-12-15T01:02:30.136Z,55.04
2022-12-15T01:05:15.817Z,54.95
2022-12-15T01:08:01.265Z,55.05
2022-12-15T01:10:47.488Z,55.33
2022-12-15T01:13:34.054Z,54.99
2022-12-15T01:16:19.999Z,55.33
2022-12-15T01:19:05.697Z,55.31
2022-12-15T01:21:32.856Z,55.24
2022-12-15T01:23:59.914Z,54.91
2022-12-15T01:26:26.967Z,55.18
2022-12-15T01:28:54.018Z,55.11
2022-12-15T01:31:21.151Z,55.31
2022-12-15T01:33:48.247Z,54.88
2022-12-15T01:36:15.651Z,54.24
2022-12-15T01:38:42.822Z,53.94
2022-12-15T01:41:12.466Z,54.46
2022-12-15T01:43:41.042Z,54.90
2022-12-15T01:46:21.656Z,54.71
2022-12-15T01:49:16.333Z,54.58
2022-12-15T01:51:48.871Z,54.48
2022-12-15T01:54:44.169Z,54.97
2022-12-15T01:57:22.028Z,53.76
2022-12-15T01:59:54.418Z,53.49
2022-12-15T02:02:26.886Z,52.72
2022-12-15T02:04:57.522Z,52.90
2022-12-15T02:07:25.252Z,52.58
2022-12-15T02:09:56.485Z,52.69
2022-12-15T02:12:42.338Z,52.57
2022-12-15T02:15:25.108Z,52.65
2022-12-15T02:18:12.155Z,52.25
2022-12-15T02:20:52.457Z,52.65
2022-12-15T02:24:06.587Z,53.05
2022-12-15T02:26:48.271Z,53.05
2022-12-15T02:29:46.247Z,53.29
2022-12-15T02:32:17.245Z,53.54
2022-12-15T02:34:59.956Z,53.75
2022-12-15T02:37:36.716Z,53.57
2022-12-15T02:40:07.079Z,53.83
2022-12-15T02:42:58.976Z,53.73
2022-12-15T02:45:56.555Z,53.80
2022-12-15T02:48:58.259Z,53.63
2022-12-15T02:51:50.764Z,53.69
2022-12-15T02:54:48.560Z,53.74
2022-12-15T02:57:19.738Z,53.69
2022-12-15T02:59:58.071Z,53.53
2022-12-15T03:02:31.107Z,53.35
2022-12-15T03:04:59.158Z,53.31
2022-12-15T03:07:28.125Z,53.44
2022-12-15T03:10:04.501Z,53.27
2022-12-15T03:12:31.611Z,52.97
2022-12-15T03:14:58.664Z,52.95
2022-12-15T03:17:25.716Z,52.98
2022-12-15T03:19:52.766Z,52.95
2022-12-15T03:22:19.942Z,52.74
2022-12-15T03:24:47.011Z,52.50
2022-12-15T03:27:14.267Z,52.15
2022-12-15T03:29:41.392Z,52.17
2022-12-15T03:32:08.625Z,52.00
2022-12-15T03:34:35.763Z,52.06
2022-12-15T03:37:02.894Z,51.78
2022-12-15T03:39:29.982Z,51.84
2022-12-15T03:41:57.029Z,51.74
2022-12-15T03:44:24.092Z,51.85
2022-12-15T03:46:51.170Z,52.26
2022-12-15T03:49:18.366Z,51.91
2022-12-15T03:51:45.445Z,52.06
2022-12-15T03:54:15.646Z,51.82
2022-12-15T03:56:42.672Z,51.87
2022-12-15T03:59:09.753Z,51.84
2022-12-15T04:01:37.523Z,51.74
2022-12-15T04:04:05.405Z,51.26
2022-12-15T04:06:32.582Z,51.53
2022-12-15T04:08:59.674Z,51.24
2022-12-15T04:11:26.795Z,51.66
2022-12-15T04:13:53.913Z,51.51
2022-12-15T04:16:21.132Z,51.31
2022-12-15T04:19:11.436Z,50.97
2022-12-15T04:21:38.539Z,51.63
2022-12-15T04:24:25.130Z,50.83
2022-12-15T04:27:10.422Z,51.51
2022-12-15T04:29:55.884Z,51.33
2022-12-15T04:32:42.354Z,52.07
2022-12-15T04:35:29.265Z,52.17
2022-12-15T04:38:15.353Z,52.36
2022-12-15T04:41:01.246Z,52.83
2022-12-15T04:43:47.121Z,52.33
2022-12-15T04:46:32.677Z,52.69
2022-12-15T04:49:18.150Z,52.73
2022-12-15T04:52:03.592Z,52.83
2022-12-15T04:54:49.669Z,53.00
2022-12-15T04:57:34.975Z,53.03
2022-12-15T05:00:21.058Z,53.45
2022-12-15T05:03:06.485Z,53.34
2022-12-15T05:05:52.537Z,53.32
2022-12-15T05:08:38.081Z,53.44
2022-12-15T05:11:24.022Z,53.66
2022-12-15T05:14:09.378Z,53.83
2022-12-15T05:16:55.177Z,53.61
2022-12-15T05:19:40.877Z,53.89
2022-12-15T05:22:26.305Z,53.91
2022-12-15T05:25:11.544Z,53.85
2022-12-15T05:27:57.063Z,53.87
2022-12-15T05:30:42.437Z,53.66
2022-12-15T05:33:09.538Z,53.30
2022-12-15T05:35:36.569Z,53.35
2022-12-15T05:38:06.221Z,53.47
2022-12-15T05:40:33.351Z,53.45
2022-12-15T05:43:00.932Z,53.40
2022-12-15T05:45:28.377Z,53.11
2022-12-15T05:47:56.165Z,53.56
2022-12-15T05:50:23.765Z,53.67
2022-12-15T05:52:50.874Z,54.07
2022-12-15T05:55:19.199Z,54.05
2022-12-15T05:57:54.590Z,54.56
2022-12-15T06:00:22.576Z,54.65
2022-12-15T06:02:50.077Z,54.65
2022-12-15T06:05:17.953Z,54.12
2022-12-15T06:07:45.160Z,53.92
2022-12-15T06:10:12.175Z,53.88
2022-12-15T06:12:39.269Z,53.56
2022-12-15T06:15:06.854Z,53.67
2022-12-15T06:17:33.920Z,54.24
2022-12-15T06:20:00.923Z,54.03
2022-12-15T06:22:29.791Z,53.98
2022-12-15T06:24:57.063Z,53.73
2022-12-15T06:27:24.207Z,53.94
2022-12-15T06:29:51.244Z,53.85
2022-12-15T06:32:18.266Z,53.85
2022-12-15T06:34:45.331Z,53.76
2022-12-15T06:37:12.897Z,53.63
2022-12-15T06:39:40.002Z,53.18
2022-12-15T06:42:07.047Z,53.14
2022-12-15T06:44:34.077Z,53.21
2022-12-15T06:47:01.185Z,52.96
2022-12-15T06:49:28.277Z,53.14
2022-12-15T06:51:55.298Z,53.39
2022-12-15T06:54:22.387Z,53.48
2022-12-15T06:56:50.027Z,53.25
2022-12-15T06:59:17.241Z,53.18
2022-12-15T07:01:44.601Z,53.15
2022-12-15T07:04:12.251Z,52.83
2022-12-15T07:06:40.172Z,52.67
2022-12-15T07:09:13.532Z,52.82
2022-12-15T07:11:40.756Z,53.34
2022-12-15T07:14:07.880Z,53.41
2022-12-15T07:16:35.104Z,53.19
2022-12-15T07:19:02.565Z,53.37
2022-12-15T07:21:29.861Z,53.70
2022-12-15T07:23:58.138Z,54.08
2022-12-15T07:26:26.075Z,53.54
2022-12-15T07:28:54.159Z,53.72
2022-12-15T07:31:22.777Z,53.46
2022-12-15T07:33:52.282Z,53.65
2022-12-15T07:36:20.055Z,53.19
2022-12-15T07:38:50.656Z,53.14
2022-12-15T07:41:20.208Z,52.39
2022-12-15T07:43:48.178Z,52.80
2022-12-15T07:46:16.250Z,52.36
2022-12-15T07:48:43.445Z,52.14
2022-12-15T07:51:18.796Z,52.16
2022-12-15T07:53:47.536Z,52.22
2022-12-15T07:56:15.519Z,52.39
2022-12-15T07:58:42.918Z,52.29
2022-12-15T08:01:13.430Z,51.84
2022-12-15T08:03:41.508Z,52.28
2022-12-15T08:06:14.985Z,52.18
2022-12-15T08:08:44.968Z,52.38
2022-12-15T08:11:20.118Z,52.25
2022-12-15T08:14:04.935Z,52.25
2022-12-15T08:16:36.605Z,52.29
2022-12-15T08:19:05.902Z,51.98
2022-12-15T08:21:33.901Z,51.83
2022-12-15T08:24:01.267Z,51.80
2022-12-15T08:26:31.029Z,51.83
2022-12-15T08:29:32.099Z,51.64
2022-12-15T08:31:51.473Z,50.79
2022-12-15T08:34:18.739Z,50.95
2022-12-15T08:36:45.944Z,50.46
2022-12-15T08:39:13.067Z,49.87
2022-12-15T08:41:41.243Z,50.05
2022-12-15T08:44:08.740Z,50.45
2022-12-15T08:46:35.908Z,50.26
2022-12-15T08:49:04.077Z,50.62
2022-12-15T08:51:33.198Z,49.85
2022-12-15T08:54:01.786Z,50.37
2022-12-15T08:56:30.267Z,50.43
2022-12-15T08:59:02.244Z,50.25
2022-12-15T09:01:32.517Z,49.92
2022-12-15T09:04:01.423Z,49.81
2022-12-15T09:06:32.181Z,49.61
2022-12-15T09:09:02.673Z,49.34
2022-12-15T09:11:31.084Z,49.61
2022-12-15T09:13:59.233Z,49.47
2022-12-15T09:16:27.760Z,49.49
2022-12-15T09:18:58.308Z,49.38
2022-12-15T09:21:29.342Z,49.02
2022-12-15T09:24:01.395Z,48.06
2022-12-15T09:26:32.633Z,48.13
2022-12-15T09:29:01.929Z,48.34
2022-12-15T09:31:33.081Z,47.93
2022-12-15T09:34:01.659Z,48.11
2022-12-15T09:36:32.768Z,48.19
2022-12-15T09:39:02.006Z,48.24
2022-12-15T09:41:33.788Z,47.68
2022-12-15T09:44:19.908Z,47.43
2022-12-15T09:47:26.824Z,47.10
2022-12-15T09:50:04.117Z,46.74
2022-12-15T09:52:56.873Z,46.43
2022-12-15T09:55:30.987Z,46.30
2022-12-15T09:58:11.767Z,45.64
2022-12-15T10:01:11.164Z,45.53
2022-12-15T10:04:20.180Z,45.71
2022-12-15T10:07:46.716Z,45.00
2022-12-15T10:10:44.956Z,43.95
2022-12-15T10:13:40.661Z,43.29
2022-12-15T10:16:39.742Z,42.09
2022-12-15T10:19:19.917Z,41.77
2022-12-15T10:21:50.536Z,41.63
2022-12-15T10:24:37.454Z,41.19
2022-12-15T10:27:17.406Z,40.71
2022-12-15T10:29:57.278Z,40.93
2022-12-15T10:33:05.679Z,40.90
2022-12-15T10:35:35.974Z,41.41
2022-12-15T10:38:16.869Z,41.04
2022-12-15T10:40:56.795Z,41.29
2022-12-15T10:43:34.700Z,40.70
2022-12-15T10:46:04.459Z,41.12
2022-12-15T10:48:31.857Z,41.12
2022-12-15T10:51:14.269Z,41.38
2022-12-15T10:53:52.865Z,41.00
2022-12-15T10:56:33.102Z,40.91
2022-12-15T10:59:25.433Z,39.97
2022-12-15T11:01:54.776Z,39.11
2022-12-15T11:04:32.259Z,37.89
2022-12-15T11:07:02.369Z,37.27
2022-12-15T11:09:36.120Z,36.14
2022-12-15T11:12:39.773Z,34.58
2022-12-15T11:15:24.852Z,33.62
2022-12-15T11:18:13.710Z,32.32
2022-12-15T11:21:08.083Z,31.31
2022-12-15T11:24:08.740Z,30.33
2022-12-15T11:27:00.281Z,29.33
2022-12-15T11:29:51.992Z,28.52
2022-12-15T11:32:26.535Z,27.26
2022-12-15T11:34:53.775Z,27.33
2022-12-15T11:37:44.507Z,26.71
2022-12-15T11:40:24.838Z,25.65
2022-12-15T11:43:32.372Z,24.63
2022-12-15T11:46:20.367Z,24.61
2022-12-15T11:49:48.170Z,24.16
2022-12-15T11:52:24.956Z,23.48
2022-12-15T11:55:25.787Z,23.31
2022-12-15T11:58:36.670Z,22.52
2022-12-15T12:01:24.908Z,21.89
2022-12-15T12:04:21.024Z,22.06
2022-12-15T12:07:20.598Z,21.98
2022-12-15T12:09:58.370Z,22.95
2022-12-15T12:12:36.746Z,24.14
2022-12-15T12:15:12.589Z,25.94
2022-12-15T12:17:46.413Z,27.38
2022-12-15T12:20:19.408Z,27.90
2022-12-15T12:23:32.282Z,29.02
2022-12-15T12:26:31.855Z,29.99
2022-12-15T12:29:25.857Z,28.72
2022-12-15T12:32:21.177Z,26.33
2022-12-15T12:38:04.798Z,23.56
2022-12-15T12:40:41.335Z,23.74
2022-12-15T12:43:22.871Z,23.80
2022-12-15T12:45:59.965Z,24.00
2022-12-15T12:48:33.047Z,23.84
2022-12-15T12:51:28.906Z,23.63
2022-12-15T12:53:57.421Z,24.26
2022-12-15T12:56:50.449Z,23.76
2022-12-15T12:59:29.872Z,22.40
2022-12-15T13:02:19.081Z,21.53
2022-12-15T13:04:58.807Z,21.35
2022-12-15T13:07:37.735Z,21.54
2022-12-15T13:10:36.769Z,20.81
2022-12-15T13:13:19.327Z,21.19
2022-12-15T13:15:50.970Z,21.12
2022-12-15T13:18:24.938Z,20.99
2022-12-15T13:20:57.837Z,21.12
2022-12-15T13:23:26.181Z,20.95
2022-12-15T13:25:55.896Z,21.49
2022-12-15T13:28:27.217Z,21.35
2022-12-15T13:31:13.308Z,21.03
2022-12-15T13:33:49.576Z,21.68
2022-12-15T13:36:41.642Z,21.64
2022-12-15T13:39:14.243Z,21.47
2022-12-15T13:42:00.236Z,21.59
2022-12-15T13:44:37.351Z,22.38
2022-12-15T13:47:25.725Z,24.27
2022-12-15T13:50:17.080Z,26.22
2022-12-15T13:53:17.775Z,28.03
2022-12-15T13:55:52.558Z,29.97
2022-12-15T13:58:22.191Z,31.39
2022-12-15T14:00:59.099Z,32.79
2022-12-15T14:03:26.419Z,33.83
2022-12-15T14:05:57.188Z,34.96
2022-12-15T14:08:29.887Z,35.23
2022-12-15T14:11:06.977Z,36.34
2022-12-15T14:13:46.022Z,36.64
2022-12-15T14:16:22.480Z,37.20
2022-12-15T14:19:15.310Z,37.98
2022-12-15T14:21:57.899Z,38.19
2022-12-15T14:24:44.688Z,38.92
2022-12-15T14:27:30.608Z,39.91
2022-12-15T14:30:26.863Z,39.83
2022-12-15T14:33:16.323Z,40.36
2022-12-15T14:35:55.324Z,41.05
2022-12-15T14:38:45.626Z,41.29
2022-12-15T14:41:28.824Z,41.49
2022-12-15T14:44:36.353Z,41.94
2022-12-15T14:46:56.349Z,42.14
2022-12-15T14:49:32.811Z,42.63
2022-12-15T14:52:05.793Z,43.05
2022-12-15T14:54:39.574Z,43.25
2022-12-15T14:57:09.712Z,43.75
2022-12-15T14:59:43.318Z,44.03
2022-12-15T15:02:30.905Z,44.06
2022-12-15T15:03:05.022Z,24.90
2022-12-15T15:05:07.459Z,44.09
2022-12-15T15:07:38.085Z,44.33
2022-12-15T15:10:23.865Z,44.76
2022-12-15T15:12:52.840Z,44.87
2022-12-15T15:15:24.569Z,44.78
2022-12-15T15:17:55.177Z,44.69
2022-12-15T15:20:37.837Z,44.91
2022-12-15T15:23:07.929Z,45.18
2022-12-15T15:25:41.643Z,45.33
2022-12-15T15:28:17.668Z,45.85
2022-12-15T15:31:05.673Z,46.00
2022-12-15T15:33:33.628Z,46.28
2022-12-15T15:36:02.983Z,46.22
2022-12-15T15:38:39.668Z,46.23
2022-12-15T15:41:26.605Z,46.62
2022-12-15T15:43:54.260Z,46.18
2022-12-15T15:46:25.710Z,46.76
2022-12-15T15:49:00.885Z,46.68
2022-12-15T15:51:30.623Z,46.93
2022-12-15T15:54:08.547Z,47.71
2022-12-15T15:56:35.679Z,48.33
2022-12-15T15:59:16.396Z,48.17
2022-12-15T16:01:46.689Z,48.35
2022-12-15T16:04:14.762Z,48.42
2022-12-15T16:06:46.931Z,48.56
2022-12-15T16:09:16.828Z,49.36
2022-12-15T16:11:46.459Z,49.52
2022-12-15T16:14:16.934Z,49.29
2022-12-15T16:16:45.017Z,49.23
2022-12-15T16:19:12.391Z,49.32
2022-12-15T16:21:40.916Z,49.43
2022-12-15T16:24:17.894Z,49.90
2022-12-15T16:26:50.416Z,50.23
2022-12-15T16:29:20.878Z,50.26
2022-12-15T16:31:48.146Z,50.41
2022-12-15T16:34:24.796Z,50.32
2022-12-15T16:36:51.989Z,50.44
2022-12-15T16:39:29.252Z,50.44
2022-12-15T16:41:57.268Z,50.35
2022-12-15T16:44:26.570Z,50.61
2022-12-15T16:46:53.984Z,50.72
2022-12-15T16:49:21.615Z,50.23
2022-12-15T16:51:53.412Z,50.01
2022-12-15T16:54:25.367Z,50.50
2022-12-15T16:56:54.744Z,50.97
2022-12-15T16:59:34.870Z,51.09
2022-12-15T17:02:28.228Z,51.10
2022-12-15T17:04:56.028Z,51.11
2022-12-15T17:07:26.826Z,51.13
2022-12-15T17:09:54.229Z,51.07
2022-12-15T17:12:21.362Z,51.00
2022-12-15T17:14:48.698Z,51.37
2022-12-15T17:17:18.751Z,51.41
2022-12-15T17:20:11.770Z,51.28
2022-12-15T17:22:33.757Z,51.00
2022-12-15T17:25:01.190Z,51.21
2022-12-15T17:27:30.225Z,51.23
2022-12-15T17:29:59.686Z,51.47
2022-12-15T17:32:26.865Z,51.42
2022-12-15T17:34:53.985Z,51.40
2022-12-15T17:37:21.268Z,51.44
2022-12-15T17:39:51.540Z,51.43
2022-12-15T17:42:21.159Z,51.24
2022-12-15T17:44:51.833Z,51.40
2022-12-15T17:47:19.059Z,51.15
2022-12-15T17:49:47.368Z,51.07
2022-12-15T17:52:28.958Z,50.95
2022-12-15T17:54:57.088Z,50.77
2022-12-15T17:57:24.482Z,50.83
2022-12-15T17:59:51.606Z,50.74
2022-12-15T18:02:18.844Z,50.75
2022-12-15T18:04:46.093Z,50.86
2022-12-15T18:07:24.074Z,50.73
2022-12-15T18:09:52.231Z,50.39
2022-12-15T18:12:26.485Z,50.14
2022-12-15T18:14:55.135Z,49.83
2022-12-15T18:17:23.083Z,49.78
2022-12-15T18:19:50.309Z,50.12
2022-12-15T18:22:24.369Z,49.77
2022-12-15T18:24:53.822Z,49.61
2022-12-15T18:27:27.999Z,49.07
2022-12-15T18:29:56.625Z,49.43
2022-12-15T18:32:26.440Z,49.09
2022-12-15T18:34:54.528Z,49.06
2022-12-15T18:37:24.976Z,49.20
2022-12-15T18:39:52.940Z,49.32
2022-12-15T18:42:23.159Z,49.38
2022-12-15T18:44:52.996Z,49.64
2022-12-15T18:47:23.508Z,50.18
2022-12-15T18:49:51.036Z,49.92
2022-12-15T18:52:21.919Z,50.30
2022-12-15T18:54:50.905Z,49.92
2022-12-15T18:57:32.531Z,49.79
2022-12-15T19:00:27.184Z,49.33
2022-12-15T19:02:57.327Z,49.20
2022-12-15T19:05:32.738Z,48.57
2022-12-15T19:08:10.195Z,48.85
2022-12-15T19:10:49.408Z,48.79
2022-12-15T19:13:20.204Z,48.49
2022-12-15T19:15:47.986Z,48.75
2022-12-15T19:18:36.328Z,48.58
2022-12-15T19:21:50.071Z,48.65
2022-12-15T19:24:49.815Z,48.79
2022-12-15T19:27:23.222Z,48.79
2022-12-15T19:29:51.402Z,48.76
2022-12-15T19:32:18.599Z,48.89
2022-12-15T19:34:45.876Z,49.02
2022-12-15T19:37:30.164Z,49.32
2022-12-15T19:40:01.451Z,49.53
2022-12-15T19:42:37.259Z,49.57
2022-12-15T19:45:32.296Z,49.25
2022-12-15T19:47:59.954Z,49.16
2022-12-15T19:50:36.298Z,49.18
2022-12-15T19:53:12.976Z,49.33
2022-12-15T19:55:40.842Z,49.39
2022-12-15T19:58:28.052Z,49.52
2022-12-15T20:01:01.604Z,49.76
2022-12-15T20:03:30.490Z,50.08
2022-12-15T20:05:59.683Z,50.75
2022-12-15T20:08:38.810Z,50.81
2022-12-15T20:11:11.701Z,50.77
2022-12-15T20:13:38.760Z,50.48
2022-12-15T20:16:06.246Z,50.79
2022-12-15T20:18:33.586Z,50.37
2022-12-15T20:21:04.098Z,50.39
2022-12-15T20:23:31.873Z,50.44
2022-12-15T20:25:59.619Z,50.60
2022-12-15T20:28:29.696Z,50.57
2022-12-15T20:30:57.668Z,50.46
2022-12-15T20:33:25.072Z,50.21
2022-12-15T20:35:52.823Z,50.61
2022-12-15T20:38:28.579Z,50.61
2022-12-15T20:40:56.548Z,51.35
2022-12-15T20:43:25.705Z,50.91
2022-12-15T20:46:16.058Z,50.71
2022-12-15T20:48:44.695Z,50.56
2022-12-15T20:51:23.060Z,50.48
2022-12-15T20:54:03.065Z,50.68
2022-12-15T20:56:30.320Z,50.58
2022-12-15T20:58:59.374Z,50.59
2022-12-15T21:01:32.169Z,50.49
2022-12-15T21:04:02.980Z,50.25
2022-12-15T21:06:30.724Z,49.96
2022-12-15T21:08:57.893Z,50.14
2022-12-15T21:11:30.784Z,50.68
2022-12-15T21:14:04.576Z,50.70
2022-12-15T21:16:33.099Z,50.62
2022-12-15T21:19:20.951Z,50.52
2022-12-15T21:21:54.970Z,50.46
2022-12-15T21:24:28.706Z,50.48
2022-12-15T21:26:56.112Z,50.57
2022-12-15T21:29:27.401Z,50.12
2022-12-15T21:31:54.634Z,50.41
2022-12-15T21:34:21.844Z,50.46
2022-12-15T21:36:54.956Z,50.59
2022-12-15T21:39:36.475Z,50.64
2022-12-15T21:42:14.051Z,50.84
2022-12-15T21:44:41.686Z,51.07
2022-12-15T21:47:52.156Z,50.93
2022-12-15T21:50:19.614Z,50.46
2022-12-15T21:52:47.837Z,50.31
2022-12-15T21:55:21.449Z,50.42
2022-12-15T21:57:48.591Z,50.64
2022-12-15T22:00:18.375Z,50.63
2022-12-15T22:02:47.359Z,50.54
2022-12-15T22:05:25.200Z,50.68
2022-12-15T22:07:52.680Z,50.63
2022-12-15T22:10:19.843Z,50.50
2022-12-15T22:12:59.003Z,50.02
2022-12-15T22:15:27.217Z,50.26
2022-12-15T22:17:54.260Z,50.57
2022-12-15T22:20:24.553Z,50.59
2022-12-15T22:22:51.877Z,50.69
2022-12-15T22:25:25.830Z,50.85
2022-12-15T22:27:54.998Z,50.81
2022-12-15T22:30:27.174Z,50.75
2022-12-15T22:32:54.585Z,50.49
2022-12-15T22:35:26.130Z,50.54
2022-12-15T22:37:56.538Z,50.66
2022-12-15T22:40:25.388Z,50.58
2022-12-15T22:42:58.318Z,50.99
2022-12-15T22:45:28.709Z,50.94
2022-12-15T22:47:55.956Z,50.52
2022-12-15T22:50:26.570Z,50.82
2022-12-15T22:52:55.152Z,50.66
2022-12-15T22:55:24.507Z,50.70
2022-12-15T22:58:01.544Z,50.82
2022-12-15T23:00:28.714Z,50.70
2022-12-15T23:05:25.645Z,50.32
2022-12-15T23:07:53.658Z,50.45
2022-12-15T23:10:40.339Z,50.75
2022-12-15T23:13:07.574Z,50.90
2022-12-15T23:15:54.764Z,50.77
2022-12-15T23:18:22.063Z,50.61
2022-12-15T23:20:49.176Z,50.89
2022-12-15T23:23:16.292Z,50.92
2022-12-15T23:25:44.564Z,50.79
2022-12-15T23:28:11.840Z,50.28
2022-12-15T23:30:39.049Z,49.90
2022-12-15T23:33:06.190Z,49.85
2022-12-15T23:35:33.319Z,49.92
2022-12-15T23:38:00.437Z,49.57
2022-12-15T23:40:27.537Z,49.78
2022-12-15T23:42:54.689Z,50.48
2022-12-15T23:45:22.600Z,50.47
2022-12-15T23:47:49.797Z,50.68
2022-12-15T23:50:17.041Z,51.01
2022-12-15T23:52:44.646Z,50.78
2022-12-15T23:55:19.999Z,50.82
2022-12-15T23:57:59.792Z,50.76
